createdAt,value
2023-05-08T00:01:08.600Z,2.78
2023-05-08T00:03:37.018Z,2.78
2023-05-08T00:06:06.078Z,2.77
2023-05-08T00:08:34.354Z,2.78
2023-05-08T00:11:02.634Z,2.77
2023-05-08T00:13:30.982Z,2.73
2023-05-08T00:15:59.287Z,2.70
2023-05-08T00:18:27.749Z,2.71
2023-05-08T00:20:56.102Z,2.76
2023-05-08T00:23:24.600Z,2.78
2023-05-08T00:25:52.929Z,2.75
2023-05-08T00:28:21.340Z,2.73
2023-05-08T00:30:49.681Z,2.73
2023-05-08T00:33:17.958Z,2.73
2023-05-08T00:35:46.327Z,2.73
2023-05-08T00:38:14.730Z,2.73
2023-05-08T00:40:43.767Z,2.67
2023-05-08T00:43:12.086Z,2.61
2023-05-08T00:45:40.736Z,2.58
2023-05-08T00:48:09.095Z,2.57
2023-05-08T00:50:37.694Z,2.55
2023-05-08T00:53:06.676Z,2.51
2023-05-08T00:55:35.318Z,2.53
2023-05-08T00:58:03.717Z,2.52
2023-05-08T01:00:33.196Z,2.54
2023-05-08T01:03:02.272Z,2.55
2023-05-08T01:05:31.234Z,2.53
2023-05-08T01:07:59.728Z,2.54
2023-05-08T01:11:09.358Z,2.57
2023-05-08T01:14:12.683Z,2.56
2023-05-08T01:16:52.701Z,2.51
2023-05-08T01:19:33.219Z,2.48
2023-05-08T01:22:23.349Z,2.45
2023-05-08T01:25:29.692Z,2.45
2023-05-08T01:28:34.135Z,2.44
2023-05-08T01:31:22.133Z,2.43
2023-05-08T01:34:03.868Z,2.41
2023-05-08T01:36:51.979Z,2.41
2023-05-08T01:39:35.721Z,2.43
2023-05-08T01:42:19.592Z,2.48
2023-05-08T01:44:54.072Z,2.52
2023-05-08T01:47:26.163Z,2.52
2023-05-08T01:50:16.669Z,2.47
2023-05-08T01:53:02.583Z,2.42
2023-05-08T01:55:36.895Z,2.38
2023-05-08T01:58:10.069Z,2.35
2023-05-08T02:00:41.061Z,2.35
2023-05-08T02:03:11.290Z,2.36
2023-05-08T02:05:40.871Z,2.34
2023-05-08T02:08:12.106Z,2.32
2023-05-08T02:10:42.664Z,2.32
2023-05-08T02:13:11.492Z,2.34
2023-05-08T02:15:42.485Z,2.37
2023-05-08T02:18:13.156Z,2.38
2023-05-08T02:20:42.571Z,2.37
2023-05-08T02:23:11.870Z,2.37
2023-05-08T02:25:41.717Z,2.39
2023-05-08T02:28:10.570Z,2.38
2023-05-08T02:30:40.985Z,2.39
2023-05-08T02:33:12.032Z,2.41
2023-05-08T02:35:44.122Z,2.40
2023-05-08T02:38:16.020Z,2.41
2023-05-08T02:40:51.548Z,2.45
2023-05-08T02:43:19.897Z,2.41
2023-05-08T02:46:20.180Z,2.40
2023-05-08T02:48:57.658Z,2.34
2023-05-08T02:51:33.818Z,2.33
2023-05-08T02:54:31.299Z,2.31
2023-05-08T02:57:09.367Z,2.27
2023-05-08T02:59:47.356Z,2.26
2023-05-08T03:02:29.041Z,2.27
2023-05-08T03:05:04.599Z,2.23
2023-05-08T03:07:38.603Z,2.22
2023-05-08T03:10:14.199Z,2.23
2023-05-08T03:12:52.794Z,2.24
2023-05-08T03:15:27.903Z,2.25
2023-05-08T03:17:59.364Z,2.25
2023-05-08T03:20:34.160Z,2.23
2023-05-08T03:23:04.934Z,2.22
2023-05-08T03:25:36.074Z,2.21
2023-05-08T03:28:05.567Z,2.19
2023-05-08T03:30:37.707Z,2.19
2023-05-08T03:33:07.855Z,2.20
2023-05-08T03:35:39.918Z,2.20
2023-05-08T03:38:09.196Z,2.23
2023-05-08T03:40:42.900Z,2.26
2023-05-08T03:43:11.802Z,2.26
2023-05-08T03:45:41.378Z,2.28
2023-05-08T03:48:10.340Z,2.32
2023-05-08T03:50:39.053Z,2.37
2023-05-08T03:53:07.555Z,2.41
2023-05-08T03:55:36.875Z,2.44
2023-05-08T03:58:34.925Z,2.49
2023-05-08T04:01:26.718Z,2.58
2023-05-08T04:04:06.479Z,2.66
2023-05-08T04:06:48.471Z,2.72
2023-05-08T04:09:25.122Z,2.79
2023-05-08T04:11:56.050Z,2.85
2023-05-08T04:14:28.109Z,2.90
2023-05-08T04:17:03.311Z,2.97
2023-05-08T04:19:38.599Z,3.06
2023-05-08T04:22:08.637Z,3.16
2023-05-08T04:24:42.230Z,3.27
2023-05-08T04:27:11.274Z,3.36
2023-05-08T04:29:39.999Z,3.46
2023-05-08T04:32:09.561Z,3.56
2023-05-08T04:34:37.967Z,3.62
2023-05-08T04:37:08.242Z,3.70
2023-05-08T04:39:36.599Z,3.78
2023-05-08T04:42:05.126Z,3.87
2023-05-08T04:44:33.410Z,3.98
2023-05-08T04:47:01.909Z,4.10
2023-05-08T04:49:30.198Z,4.20
2023-05-08T04:51:58.637Z,4.28
2023-05-08T04:54:26.960Z,4.34
2023-05-08T04:56:55.262Z,4.40
2023-05-08T04:59:25.309Z,4.48
2023-05-08T05:01:53.668Z,4.56
2023-05-08T05:04:23.162Z,4.66
2023-05-08T05:06:51.491Z,4.75
2023-05-08T05:09:19.915Z,4.85
2023-05-08T05:11:48.310Z,4.92
2023-05-08T05:14:16.766Z,4.99
2023-05-08T05:16:45.530Z,5.04
2023-05-08T05:19:14.311Z,5.12
2023-05-08T05:21:42.686Z,5.21
2023-05-08T05:24:11.483Z,5.31
2023-05-08T05:26:41.779Z,5.41
2023-05-08T05:29:10.515Z,5.52
2023-05-08T05:31:40.735Z,5.60
2023-05-08T05:34:09.281Z,5.68
2023-05-08T05:36:38.080Z,5.77
2023-05-08T05:39:07.911Z,5.86
2023-05-08T05:41:37.912Z,5.94
2023-05-08T05:44:08.974Z,6.05
2023-05-08T05:46:42.794Z,6.15
2023-05-08T05:49:13.126Z,6.25
2023-05-08T05:51:45.786Z,6.35
2023-05-08T05:54:14.996Z,6.41
2023-05-08T05:56:43.939Z,6.49
2023-05-08T05:59:12.929Z,6.59
2023-05-08T06:01:43.761Z,6.67
2023-05-08T06:04:13.177Z,6.76
2023-05-08T06:06:41.889Z,6.83
2023-05-08T06:09:10.845Z,6.84
2023-05-08T06:11:39.366Z,6.89
2023-05-08T06:14:08.297Z,6.96
2023-05-08T06:16:37.193Z,7.02
2023-05-08T06:19:06.622Z,7.07
2023-05-08T06:21:37.848Z,7.15
2023-05-08T06:24:07.369Z,7.22
2023-05-08T06:26:36.666Z,7.26
2023-05-08T06:29:08.646Z,7.29
2023-05-08T06:31:37.251Z,7.36
2023-05-08T06:34:06.332Z,7.41
2023-05-08T06:36:39.649Z,7.42
2023-05-08T06:39:09.064Z,7.51
2023-05-08T06:41:38.273Z,7.59
2023-05-08T06:44:06.825Z,7.66
2023-05-08T06:46:43.352Z,7.72
2023-05-08T06:49:12.764Z,7.78
2023-05-08T06:51:43.318Z,7.83
2023-05-08T06:54:15.024Z,7.89
2023-05-08T06:56:43.996Z,7.97
2023-05-08T06:59:13.158Z,8.08
2023-05-08T07:01:43.133Z,8.19
2023-05-08T07:04:12.006Z,8.23
2023-05-08T07:06:46.416Z,8.28
2023-05-08T07:09:16.973Z,8.38
2023-05-08T07:11:45.620Z,8.50
2023-05-08T07:14:15.070Z,8.55
2023-05-08T07:16:46.081Z,8.58
2023-05-08T07:19:14.440Z,8.71
2023-05-08T07:21:43.340Z,8.83
2023-05-08T07:24:13.890Z,8.90
2023-05-08T07:26:43.526Z,8.95
2023-05-08T07:29:13.800Z,9.05
2023-05-08T07:31:43.300Z,9.15
2023-05-08T07:34:17.411Z,9.22
2023-05-08T07:36:46.312Z,9.24
2023-05-08T07:39:15.950Z,9.21
2023-05-08T07:41:47.823Z,9.27
2023-05-08T07:44:19.958Z,9.33
2023-05-08T07:46:53.778Z,9.39
2023-05-08T07:49:23.415Z,9.48
2023-05-08T07:51:53.608Z,9.61
2023-05-08T07:54:22.435Z,9.72
2023-05-08T07:56:53.093Z,9.85
2023-05-08T07:59:23.869Z,9.94
2023-05-08T08:01:54.108Z,9.91
2023-05-08T08:04:23.367Z,9.94
2023-05-08T08:06:53.802Z,10.08
2023-05-08T08:09:25.929Z,10.18
2023-05-08T08:11:57.117Z,10.23
2023-05-08T08:14:28.910Z,10.39
2023-05-08T08:17:06.084Z,10.54
2023-05-08T08:19:36.048Z,10.65
2023-05-08T08:22:09.893Z,10.73
2023-05-08T08:24:42.231Z,10.80
2023-05-08T08:27:12.241Z,10.92
2023-05-08T08:29:44.902Z,11.02
2023-05-08T08:32:29.510Z,10.94
2023-05-08T08:35:03.885Z,10.90
2023-05-08T08:37:39.096Z,10.97
2023-05-08T08:40:12.352Z,10.85
2023-05-08T08:42:48.142Z,10.73
2023-05-08T08:45:19.500Z,10.71
2023-05-08T08:47:59.987Z,10.74
2023-05-08T08:50:37.886Z,10.87
2023-05-08T08:53:28.188Z,10.94
2023-05-08T08:56:03.268Z,10.89
2023-05-08T08:58:39.299Z,10.88
2023-05-08T09:01:11.549Z,10.94
2023-05-08T09:03:44.669Z,11.04
2023-05-08T09:06:22.080Z,11.13
2023-05-08T09:08:59.980Z,11.18
2023-05-08T09:11:31.403Z,11.15
2023-05-08T09:14:07.855Z,11.18
2023-05-08T09:16:40.218Z,11.35
2023-05-08T09:19:17.925Z,11.75
2023-05-08T09:21:51.887Z,12.33
2023-05-08T09:24:24.775Z,12.63
2023-05-08T09:26:58.853Z,12.46
2023-05-08T09:37:14.518Z,13.88
2023-05-08T09:47:11.761Z,14.18
2023-05-08T09:49:41.532Z,13.79
2023-05-08T09:52:16.211Z,13.24
2023-05-08T09:54:46.609Z,12.99
2023-05-08T09:57:15.354Z,13.24
2023-05-08T09:59:47.408Z,13.41
2023-05-08T10:02:17.520Z,13.45
2023-05-08T10:04:46.854Z,13.53
2023-05-08T10:07:15.647Z,13.88
2023-05-08T10:10:05.296Z,14.37
2023-05-08T10:12:38.296Z,14.83
2023-05-08T10:15:07.548Z,15.06
2023-05-08T10:17:48.600Z,15.13
2023-05-08T10:20:21.638Z,15.31
2023-05-08T10:22:53.540Z,15.60
2023-05-08T10:25:24.217Z,15.64
2023-05-08T10:28:06.724Z,15.51
2023-05-08T10:30:38.788Z,15.82
2023-05-08T10:33:10.997Z,16.12
2023-05-08T10:35:39.628Z,16.28
2023-05-08T10:38:12.146Z,16.29
2023-05-08T10:40:44.454Z,16.35
2023-05-08T10:43:12.855Z,16.61
2023-05-08T10:45:41.257Z,17.03
2023-05-08T10:48:18.709Z,17.33
2023-05-08T10:51:05.703Z,17.49
2023-05-08T10:53:40.329Z,17.29
2023-05-08T10:56:11.422Z,17.40
2023-05-08T10:58:46.212Z,17.52
2023-05-08T11:01:15.956Z,17.65
2023-05-08T11:03:51.018Z,17.83
2023-05-08T11:06:43.231Z,18.00
2023-05-08T11:09:21.335Z,18.03
2023-05-08T11:12:27.474Z,17.92
2023-05-08T11:15:03.432Z,17.68
2023-05-08T11:17:32.247Z,17.83
2023-05-08T11:20:10.066Z,18.08
2023-05-08T11:22:48.761Z,17.94
2023-05-08T11:25:41.866Z,17.96
2023-05-08T11:28:10.644Z,18.12
2023-05-08T11:30:43.544Z,18.45
2023-05-08T11:33:21.987Z,18.68
2023-05-08T11:35:51.171Z,18.08
2023-05-08T11:38:39.279Z,17.45
2023-05-08T11:41:24.458Z,17.06
2023-05-08T11:44:15.180Z,17.13
2023-05-08T11:46:51.975Z,17.27
2023-05-08T11:49:28.937Z,16.67
2023-05-08T11:52:01.392Z,16.34
2023-05-08T11:54:39.491Z,16.73
2023-05-08T11:57:11.109Z,17.19
2023-05-08T11:59:42.180Z,17.17
2023-05-08T12:02:10.424Z,17.42
2023-05-08T12:05:03.104Z,17.74
2023-05-08T12:07:32.658Z,17.67
2023-05-08T12:10:03.378Z,18.03
2023-05-08T12:12:42.053Z,17.97
2023-05-08T12:15:15.522Z,17.69
2023-05-08T12:17:47.642Z,17.50
2023-05-08T12:20:18.736Z,17.28
2023-05-08T12:22:52.991Z,17.16
2023-05-08T12:25:21.783Z,17.02
2023-05-08T12:27:51.568Z,17.07
2023-05-08T12:30:20.365Z,16.85
2023-05-08T12:32:49.269Z,16.42
2023-05-08T12:35:18.932Z,16.46
2023-05-08T12:37:47.867Z,16.74
2023-05-08T12:40:29.595Z,16.89
2023-05-08T12:43:05.015Z,16.73
2023-05-08T12:45:38.638Z,16.50
2023-05-08T12:48:16.034Z,16.33
2023-05-08T12:50:46.798Z,16.61
2023-05-08T12:53:18.619Z,17.16
2023-05-08T12:56:08.587Z,17.48
2023-05-08T12:58:38.831Z,17.83
2023-05-08T13:01:13.721Z,18.24
2023-05-08T13:03:43.548Z,18.55
2023-05-08T13:06:25.280Z,18.80
2023-05-08T13:08:55.392Z,19.08
2023-05-08T13:11:34.600Z,19.06
2023-05-08T13:14:06.512Z,18.64
2023-05-08T13:16:48.382Z,18.57
2023-05-08T13:19:18.292Z,18.33
2023-05-08T13:21:49.697Z,17.95
2023-05-08T13:24:18.542Z,17.61
2023-05-08T13:26:49.729Z,17.63
2023-05-08T13:29:18.409Z,17.71
2023-05-08T13:31:46.736Z,17.78
2023-05-08T13:34:15.672Z,17.98
2023-05-08T13:36:44.876Z,17.84
2023-05-08T13:39:13.628Z,17.56
2023-05-08T13:41:41.979Z,17.50
2023-05-08T13:44:17.844Z,17.14
2023-05-08T13:46:50.141Z,16.93
2023-05-08T13:49:20.037Z,17.22
2023-05-08T13:51:52.168Z,17.39
2023-05-08T13:54:25.607Z,17.53
2023-05-08T13:56:55.738Z,17.81
2023-05-08T13:59:24.110Z,18.14
2023-05-08T14:02:10.304Z,18.08
2023-05-08T14:04:40.209Z,18.03
2023-05-08T14:07:09.527Z,18.12
2023-05-08T14:09:38.595Z,18.15
2023-05-08T14:12:07.003Z,18.15
2023-05-08T14:14:36.702Z,18.01
2023-05-08T14:17:06.303Z,17.92
2023-05-08T14:19:42.238Z,17.87
2023-05-08T14:22:11.485Z,17.50
2023-05-08T14:24:41.048Z,17.04
2023-05-08T14:27:09.434Z,16.78
2023-05-08T14:29:38.122Z,16.85
2023-05-08T14:32:09.409Z,16.87
2023-05-08T14:34:43.038Z,16.75
2023-05-08T14:37:13.471Z,16.58
2023-05-08T14:39:42.176Z,16.39
2023-05-08T14:44:48.793Z,16.20
2023-05-08T14:47:19.132Z,15.86
2023-05-08T14:49:47.604Z,15.67
2023-05-08T14:52:19.939Z,15.66
2023-05-08T14:54:54.331Z,15.79
2023-05-08T14:57:24.356Z,15.90
2023-05-08T14:59:58.166Z,15.88
2023-05-08T15:02:26.730Z,15.81
2023-05-08T15:04:55.346Z,15.90
2023-05-08T15:07:23.846Z,15.97
2023-05-08T15:09:53.972Z,15.88
2023-05-08T15:12:24.792Z,15.70
2023-05-08T15:14:53.181Z,15.68
2023-05-08T15:17:21.383Z,15.72
2023-05-08T15:19:49.604Z,15.73
2023-05-08T15:22:20.650Z,15.72
2023-05-08T15:24:48.772Z,15.75
2023-05-08T15:27:17.054Z,15.78
2023-05-08T15:29:45.520Z,15.73
2023-05-08T15:32:13.930Z,15.56
2023-05-08T15:34:42.336Z,15.38
2023-05-08T15:37:10.570Z,15.12
2023-05-08T15:39:38.961Z,14.85
2023-05-08T15:42:07.423Z,14.69
2023-05-08T15:47:07.381Z,14.61
2023-05-08T15:49:35.628Z,14.68
2023-05-08T15:52:04.363Z,14.69
2023-05-08T15:54:32.565Z,14.70
2023-05-08T15:57:00.810Z,14.74
2023-05-08T15:59:29.091Z,14.77
2023-05-08T16:01:57.456Z,14.69
2023-05-08T16:04:25.726Z,14.59
2023-05-08T16:06:54.025Z,14.57
2023-05-08T16:09:23.308Z,14.59
2023-05-08T16:11:51.587Z,14.56
2023-05-08T16:14:20.544Z,14.49
2023-05-08T16:16:48.905Z,14.44
2023-05-08T16:19:17.235Z,14.37
2023-05-08T16:21:48.399Z,14.37
2023-05-08T16:24:16.652Z,14.44
2023-05-08T16:26:44.888Z,14.46
2023-05-08T16:29:13.117Z,14.48
2023-05-08T16:31:41.406Z,14.47
2023-05-08T16:34:09.770Z,14.37
2023-05-08T16:36:37.982Z,14.26
2023-05-08T16:39:06.286Z,14.16
2023-05-08T16:41:34.710Z,14.05
2023-05-08T16:44:02.873Z,13.99
2023-05-08T16:46:31.236Z,13.96
2023-05-08T16:48:59.577Z,13.94
2023-05-08T16:51:28.259Z,13.93
2023-05-08T16:53:58.089Z,13.93
2023-05-08T16:56:26.937Z,13.95
2023-05-08T16:58:55.193Z,13.97
2023-05-08T17:01:23.897Z,13.94
2023-05-08T17:03:52.601Z,13.88
2023-05-08T17:06:21.121Z,13.83
2023-05-08T17:08:50.085Z,13.77
2023-05-08T17:11:18.765Z,13.70
2023-05-08T17:13:48.575Z,13.64
2023-05-08T17:16:20.358Z,13.55
2023-05-08T17:18:52.534Z,13.50
2023-05-08T17:21:24.509Z,13.48
2023-05-08T17:24:09.985Z,13.42
2023-05-08T17:26:38.523Z,13.28
2023-05-08T17:29:06.774Z,13.21
2023-05-08T17:31:35.416Z,13.13
2023-05-08T17:34:06.157Z,13.05
2023-05-08T17:36:35.209Z,12.99
2023-05-08T17:39:04.640Z,12.91
2023-05-08T17:41:33.162Z,12.82
2023-05-08T17:44:06.000Z,12.73
2023-05-08T17:46:35.598Z,12.62
2023-05-08T17:49:05.694Z,12.53
2023-05-08T17:51:37.231Z,12.43
2023-05-08T17:54:07.184Z,12.34
2023-05-08T17:56:37.270Z,12.24
2023-05-08T17:59:06.856Z,12.14
2023-05-08T18:01:36.450Z,12.07
2023-05-08T18:04:06.796Z,11.98
2023-05-08T18:06:37.729Z,11.91
2023-05-08T18:09:06.254Z,11.83
2023-05-08T18:11:35.495Z,11.74
2023-05-08T18:14:04.696Z,11.66
2023-05-08T18:16:33.461Z,11.58
2023-05-08T18:19:02.493Z,11.50
2023-05-08T18:21:31.843Z,11.42
2023-05-08T18:24:02.488Z,11.34
2023-05-08T18:26:32.470Z,11.27
2023-05-08T18:29:01.894Z,11.16
2023-05-08T18:31:30.421Z,11.05
2023-05-08T18:33:58.920Z,10.96
2023-05-08T18:36:28.079Z,10.87
2023-05-08T18:38:56.737Z,10.78
2023-05-08T18:41:25.294Z,10.71
2023-05-08T18:43:53.762Z,10.61
2023-05-08T18:46:22.182Z,10.52
2023-05-08T18:48:50.552Z,10.44
2023-05-08T18:51:19.500Z,10.37
2023-05-08T18:53:47.855Z,10.30
2023-05-08T18:56:16.325Z,10.23
2023-05-08T18:58:47.852Z,10.15
2023-05-08T19:01:20.232Z,10.08
2023-05-08T19:03:55.683Z,10.03
2023-05-08T19:06:32.330Z,9.98
2023-05-08T19:09:02.864Z,9.92
2023-05-08T19:11:31.932Z,9.86
2023-05-08T19:14:04.972Z,9.80
2023-05-08T19:16:34.694Z,9.73
2023-05-08T19:19:03.838Z,9.67
2023-05-08T19:21:33.219Z,9.59
2023-05-08T19:24:02.220Z,9.54
2023-05-08T19:26:33.435Z,9.50
2023-05-08T19:29:02.306Z,9.46
2023-05-08T19:31:32.492Z,9.41
2023-05-08T19:34:01.742Z,9.36
2023-05-08T19:36:30.273Z,9.28
2023-05-08T19:38:58.932Z,9.22
2023-05-08T19:41:29.663Z,9.13
2023-05-08T19:44:00.735Z,9.03
2023-05-08T19:46:30.994Z,8.93
2023-05-08T19:49:01.129Z,8.83
2023-05-08T19:51:32.246Z,8.78
2023-05-08T19:54:03.367Z,8.74
2023-05-08T19:56:34.353Z,8.68
2023-05-08T19:59:07.361Z,8.63
2023-05-08T20:01:40.950Z,8.55
2023-05-08T20:04:11.195Z,8.47
2023-05-08T20:06:44.403Z,8.42
2023-05-08T20:09:16.079Z,8.36
2023-05-08T20:11:48.722Z,8.27
2023-05-08T20:14:17.576Z,8.20
2023-05-08T20:16:47.729Z,8.15
2023-05-08T20:19:16.243Z,8.07
2023-05-08T20:21:46.221Z,7.95
2023-05-08T20:24:17.390Z,7.84
2023-05-08T20:26:55.407Z,7.73
2023-05-08T20:29:32.690Z,7.63
2023-05-08T20:32:04.746Z,7.54
2023-05-08T20:34:37.691Z,7.46
2023-05-08T20:37:11.553Z,7.39
2023-05-08T20:39:50.371Z,7.35
2023-05-08T20:42:19.922Z,7.30
2023-05-08T20:44:51.915Z,7.26
2023-05-08T20:47:20.581Z,7.20
2023-05-08T20:49:52.721Z,7.14
2023-05-08T20:52:21.308Z,7.08
2023-05-08T20:54:52.667Z,7.03
2023-05-08T20:57:21.064Z,6.98
2023-05-08T20:59:53.969Z,6.93
2023-05-08T21:02:23.925Z,6.90
2023-05-08T21:04:53.424Z,6.84
